createdAt,value
2022-11-16T00:00:51.313Z,100491.97
2022-11-16T00:03:24.515Z,100484.41
2022-11-16T00:06:00.934Z,100480.25
2022-11-16T00:08:35.497Z,100474.91
2022-11-16T00:11:10.694Z,100479.25
2022-11-16T00:13:45.034Z,100480.44
2022-11-16T00:16:21.835Z,100481.34
2022-11-16T00:19:00.033Z,100480.25
2022-11-16T00:21:33.535Z,100475.47
2022-11-16T00:24:07.395Z,100466.91
2022-11-16T00:26:40.401Z,100470.41
2022-11-16T00:29:18.277Z,100472.31
2022-11-16T00:31:54.538Z,100476.19
2022-11-16T00:34:28.081Z,100469.09
2022-11-16T00:37:00.976Z,100470.72
2022-11-16T00:39:34.861Z,100474.00
2022-11-16T00:42:07.573Z,100478.38
2022-11-16T00:44:40.912Z,100478.38
2022-11-16T00:47:16.053Z,100478.75
2022-11-16T00:49:49.074Z,100475.88
2022-11-16T00:52:21.513Z,100468.56
2022-11-16T00:55:35.760Z,100465.06
2022-11-16T00:58:08.476Z,100465.66
2022-11-16T01:00:41.755Z,100476.91
2022-11-16T01:03:17.036Z,100471.81
2022-11-16T01:05:50.183Z,100472.00
2022-11-16T01:08:22.719Z,100475.88
2022-11-16T01:10:55.874Z,100471.56
2022-11-16T01:13:25.715Z,100468.06
2022-11-16T01:16:00.085Z,100471.81
2022-11-16T01:18:35.573Z,100469.03
2022-11-16T01:21:10.676Z,100469.19
2022-11-16T01:23:43.094Z,100474.94
2022-11-16T01:26:16.113Z,100478.28
2022-11-16T01:28:48.797Z,100473.22
2022-11-16T01:31:21.837Z,100474.69
2022-11-16T01:33:58.093Z,100478.38
2022-11-16T01:36:31.140Z,100478.81
2022-11-16T01:39:03.554Z,100462.50
2022-11-16T01:41:36.695Z,100457.84
2022-11-16T01:44:11.175Z,100461.41
2022-11-16T01:46:44.673Z,100454.63
2022-11-16T01:49:23.876Z,100445.06
2022-11-16T01:52:00.434Z,100437.41
2022-11-16T01:54:34.562Z,100438.38
2022-11-16T01:57:09.813Z,100433.50
2022-11-16T01:59:42.693Z,100430.09
2022-11-16T02:02:16.036Z,100429.66
2022-11-16T02:04:52.194Z,100431.72
2022-11-16T02:07:58.913Z,100432.69
2022-11-16T02:10:47.433Z,100428.34
2022-11-16T02:13:37.552Z,100418.19
2022-11-16T02:16:23.336Z,100409.22
2022-11-16T02:19:05.414Z,100406.63
2022-11-16T02:21:47.692Z,100401.19
2022-11-16T02:24:46.239Z,100397.84
2022-11-16T02:27:48.200Z,100398.94
2022-11-16T02:30:26.111Z,100399.06
2022-11-16T02:33:04.151Z,100384.97
2022-11-16T02:35:41.285Z,100382.66
2022-11-16T02:38:17.647Z,100378.59
2022-11-16T02:40:53.707Z,100380.59
2022-11-16T02:43:29.990Z,100380.41
2022-11-16T02:46:10.360Z,100379.59
2022-11-16T02:48:47.226Z,100376.22
2022-11-16T02:51:20.584Z,100367.75
2022-11-16T02:54:05.235Z,100365.34
2022-11-16T02:56:47.029Z,100364.50
2022-11-16T02:59:19.224Z,100368.47
2022-11-16T03:05:32.275Z,100372.91
2022-11-16T03:08:11.224Z,100370.09
2022-11-16T03:10:57.160Z,100386.94
2022-11-16T03:13:34.128Z,100384.50
2022-11-16T03:16:11.160Z,100380.00
2022-11-16T03:18:44.847Z,100383.25
2022-11-16T03:21:26.269Z,100377.53
2022-11-16T03:23:57.992Z,100381.72
2022-11-16T03:26:35.634Z,100382.38
2022-11-16T03:29:15.780Z,100377.50
2022-11-16T03:31:52.446Z,100367.78
2022-11-16T03:34:30.588Z,100372.69
2022-11-16T03:37:06.710Z,100369.88
2022-11-16T03:39:42.385Z,100370.56
2022-11-16T03:42:17.221Z,100372.06
2022-11-16T03:44:51.609Z,100366.78
2022-11-16T03:47:22.860Z,100366.28
2022-11-16T03:49:54.600Z,100372.53
2022-11-16T03:52:28.709Z,100362.13
2022-11-16T03:55:00.585Z,100368.44
2022-11-16T03:57:31.687Z,100360.66
2022-11-16T04:00:03.230Z,100365.78
2022-11-16T04:02:34.688Z,100364.47
2022-11-16T04:05:18.674Z,100351.09
2022-11-16T04:08:05.181Z,100355.53
2022-11-16T04:10:49.237Z,100354.16
2022-11-16T04:13:40.823Z,100346.91
2022-11-16T04:16:26.157Z,100346.44
2022-11-16T04:19:09.743Z,100336.31
2022-11-16T04:22:04.825Z,100338.84
2022-11-16T04:24:42.822Z,100343.59
2022-11-16T04:27:31.289Z,100332.06
2022-11-16T04:30:04.273Z,100334.50
2022-11-16T04:32:49.269Z,100334.09
2022-11-16T04:35:32.712Z,100340.91
2022-11-16T04:38:04.461Z,100337.16
2022-11-16T04:40:38.316Z,100344.00
2022-11-16T04:43:10.192Z,100335.72
2022-11-16T04:45:53.753Z,100324.94
2022-11-16T04:48:25.780Z,100317.28
2022-11-16T04:50:57.431Z,100321.47
2022-11-16T04:53:29.377Z,100330.00
2022-11-16T04:56:03.413Z,100325.09
2022-11-16T04:58:35.343Z,100326.06
2022-11-16T05:01:06.715Z,100328.19
2022-11-16T05:03:38.517Z,100314.91
2022-11-16T05:06:10.536Z,100317.78
2022-11-16T05:08:42.185Z,100306.81
2022-11-16T05:11:16.253Z,100316.38
2022-11-16T05:13:47.926Z,100314.00
2022-11-16T05:16:19.337Z,100321.66
2022-11-16T05:19:11.441Z,100315.00
2022-11-16T05:21:40.049Z,100316.59
2022-11-16T05:24:24.359Z,100310.09
2022-11-16T05:26:58.075Z,100319.94
2022-11-16T05:29:30.317Z,100319.03
2022-11-16T05:32:01.523Z,100320.50
2022-11-16T05:34:34.194Z,100336.31
2022-11-16T05:37:05.695Z,100326.16
2022-11-16T05:39:37.827Z,100331.53
2022-11-16T05:42:12.267Z,100327.75
2022-11-16T05:44:44.066Z,100336.59
2022-11-16T05:47:15.460Z,100334.59
2022-11-16T05:49:47.171Z,100333.63
2022-11-16T05:52:18.293Z,100330.94
2022-11-16T05:54:50.225Z,100340.16
2022-11-16T05:57:24.174Z,100342.13
2022-11-16T05:59:55.827Z,100341.66
2022-11-16T06:05:25.025Z,100337.44
2022-11-16T06:07:56.493Z,100340.47
2022-11-16T06:10:27.853Z,100343.25
2022-11-16T06:13:04.072Z,100345.34
2022-11-16T06:15:35.336Z,100357.59
2022-11-16T06:18:07.293Z,100351.00
2022-11-16T06:20:40.358Z,100352.63
2022-11-16T06:23:11.639Z,100342.69
2022-11-16T06:25:43.325Z,100352.06
2022-11-16T06:28:17.500Z,100342.69
2022-11-16T06:30:48.856Z,100353.47
2022-11-16T06:33:21.405Z,100356.34
2022-11-16T06:35:52.233Z,100359.59
2022-11-16T06:38:24.101Z,100356.44
2022-11-16T06:40:57.335Z,100352.09
2022-11-16T06:43:31.547Z,100357.59
2022-11-16T06:46:02.873Z,100362.25
2022-11-16T06:48:35.016Z,100362.00
2022-11-16T06:51:06.361Z,100362.09
2022-11-16T06:53:38.490Z,100355.75
2022-11-16T06:56:10.769Z,100357.41
2022-11-16T06:58:45.533Z,100362.25
2022-11-16T07:01:17.665Z,100361.09
2022-11-16T07:03:49.742Z,100363.41
2022-11-16T07:06:21.375Z,100365.72
2022-11-16T07:08:53.427Z,100367.44
2022-11-16T07:11:24.913Z,100372.84
2022-11-16T07:14:01.461Z,100378.47
2022-11-16T07:16:35.669Z,100363.75
2022-11-16T07:19:08.250Z,100368.88
2022-11-16T07:21:41.382Z,100365.44
2022-11-16T07:24:14.189Z,100369.97
2022-11-16T07:26:45.725Z,100365.59
2022-11-16T07:29:21.865Z,100376.16
2022-11-16T07:31:53.800Z,100363.09
2022-11-16T07:34:25.840Z,100365.53
2022-11-16T07:36:57.479Z,100368.38
2022-11-16T07:39:44.412Z,100378.19
2022-11-16T07:42:17.268Z,100378.06
2022-11-16T07:44:53.787Z,100376.00
2022-11-16T07:47:26.919Z,100370.66
2022-11-16T07:50:00.627Z,100375.00
2022-11-16T07:52:34.016Z,100377.06
2022-11-16T07:55:08.078Z,100384.03
2022-11-16T07:57:41.318Z,100379.63
2022-11-16T08:00:18.559Z,100384.31
2022-11-16T08:02:51.837Z,100380.25
2022-11-16T08:05:25.717Z,100386.16
2022-11-16T08:07:58.917Z,100384.31
2022-11-16T08:10:34.158Z,100382.31
2022-11-16T08:13:07.757Z,100376.56
2022-11-16T08:15:46.496Z,100380.09
2022-11-16T08:18:21.204Z,100383.56
2022-11-16T08:20:53.801Z,100381.59
2022-11-16T08:23:26.090Z,100376.00
2022-11-16T08:26:02.341Z,100370.66
2022-11-16T08:28:36.210Z,100374.69
2022-11-16T08:31:15.642Z,100369.25
2022-11-16T08:34:03.842Z,100373.47
2022-11-16T08:36:36.524Z,100367.00
2022-11-16T08:39:10.427Z,100357.28
2022-11-16T08:41:44.773Z,100363.50
2022-11-16T08:44:22.489Z,100359.34
2022-11-16T08:46:57.899Z,100362.09
2022-11-16T08:49:34.566Z,100355.22
2022-11-16T08:52:10.891Z,100353.00
2022-11-16T08:54:43.328Z,100354.09
2022-11-16T08:57:17.708Z,100341.84
2022-11-16T08:59:49.903Z,100337.94
2022-11-16T09:02:25.962Z,100334.97
2022-11-16T09:04:58.187Z,100331.28
2022-11-16T09:07:31.323Z,100331.03
2022-11-16T09:10:03.572Z,100328.63
2022-11-16T09:12:36.674Z,100332.25
2022-11-16T09:15:12.253Z,100329.06
2022-11-16T09:17:55.282Z,100332.28
2022-11-16T09:20:31.477Z,100331.97
2022-11-16T09:23:03.531Z,100318.28
2022-11-16T09:25:35.604Z,100312.53
2022-11-16T09:28:09.896Z,100317.31
2022-11-16T09:30:41.511Z,100320.91
2022-11-16T09:33:16.662Z,100312.22
2022-11-16T09:35:49.421Z,100315.94
2022-11-16T09:38:40.289Z,100307.72
2022-11-16T09:41:38.092Z,100300.88
2022-11-16T09:44:25.601Z,100321.59
2022-11-16T09:47:03.056Z,100312.22
2022-11-16T09:49:44.780Z,100313.69
2022-11-16T09:52:29.365Z,100316.38
2022-11-16T09:55:15.930Z,100314.00
2022-11-16T10:00:45.461Z,100308.50
2022-11-16T10:03:19.978Z,100296.06
2022-11-16T10:06:06.544Z,100300.91
2022-11-16T10:08:48.179Z,100299.50
2022-11-16T10:11:51.571Z,100310.47
2022-11-16T10:14:39.442Z,100305.94
2022-11-16T10:17:24.321Z,100298.50
2022-11-16T10:20:00.307Z,100301.28
2022-11-16T10:23:04.267Z,100298.56
2022-11-16T10:25:46.108Z,100289.44
2022-11-16T10:28:48.387Z,100277.91
2022-11-16T10:31:30.872Z,100272.47
2022-11-16T10:34:06.696Z,100284.44
2022-11-16T10:36:43.870Z,100273.16
2022-11-16T10:39:21.420Z,100275.78
2022-11-16T10:41:54.006Z,100268.81
2022-11-16T10:44:36.250Z,100270.69
2022-11-16T10:47:15.858Z,100266.41
2022-11-16T10:49:59.027Z,100269.91
2022-11-16T10:52:34.604Z,100279.66
2022-11-16T10:55:19.456Z,100271.34
2022-11-16T10:58:03.456Z,100276.69
2022-11-16T11:00:49.614Z,100277.94
2022-11-16T11:03:36.975Z,100278.97
2022-11-16T11:06:14.330Z,100283.75
2022-11-16T11:08:45.521Z,100275.91
2022-11-16T11:11:38.799Z,100269.38
2022-11-16T11:14:14.650Z,100276.03
2022-11-16T11:16:46.905Z,100259.66
2022-11-16T11:19:24.990Z,100251.66
2022-11-16T11:22:01.182Z,100261.84
2022-11-16T11:24:48.269Z,100270.06
2022-11-16T11:27:31.097Z,100270.66
2022-11-16T11:30:04.742Z,100268.25
2022-11-16T11:32:48.011Z,100256.75
2022-11-16T11:35:28.468Z,100267.44
2022-11-16T11:38:08.023Z,100280.84
2022-11-16T11:40:45.073Z,100270.50
2022-11-16T11:43:27.262Z,100276.84
2022-11-16T11:46:07.531Z,100274.31
2022-11-16T11:48:49.071Z,100275.63
2022-11-16T11:51:28.945Z,100281.75
2022-11-16T11:54:02.840Z,100276.41
2022-11-16T11:56:38.180Z,100276.00
2022-11-16T11:59:21.299Z,100267.34
2022-11-16T12:02:19.797Z,100268.28
2022-11-16T12:05:35.999Z,100268.59
2022-11-16T12:08:25.706Z,100271.38
2022-11-16T12:11:06.864Z,100272.38
2022-11-16T12:14:00.292Z,100274.75
2022-11-16T12:16:48.130Z,100284.34
2022-11-16T12:19:42.694Z,100277.50
2022-11-16T12:22:32.589Z,100270.91
2022-11-16T12:25:21.270Z,100270.06
2022-11-16T12:28:17.107Z,100275.81
2022-11-16T12:31:03.263Z,100281.47
2022-11-16T12:33:47.519Z,100274.22
2022-11-16T12:36:43.779Z,100274.94
2022-11-16T12:39:28.920Z,100270.03
2022-11-16T12:42:40.539Z,100274.44
2022-11-16T12:45:39.314Z,100278.53
2022-11-16T12:48:31.095Z,100269.88
2022-11-16T12:51:18.684Z,100270.72
2022-11-16T12:54:17.496Z,100271.59
2022-11-16T12:56:57.524Z,100271.03
2022-11-16T12:59:44.428Z,100264.44
2022-11-16T13:02:31.368Z,100272.38
2022-11-16T13:05:13.824Z,100268.50
2022-11-16T13:07:52.630Z,100273.97
2022-11-16T13:10:30.802Z,100263.97
2022-11-16T13:13:34.786Z,100265.59
2022-11-16T13:16:08.091Z,100259.66
2022-11-16T13:18:46.056Z,100255.59
2022-11-16T13:21:32.167Z,100252.09
2022-11-16T13:24:25.077Z,100250.44
2022-11-16T13:27:06.584Z,100252.19
2022-11-16T13:29:47.207Z,100248.94
2022-11-16T13:32:26.344Z,100246.31
2022-11-16T13:35:01.062Z,100244.16
2022-11-16T13:37:47.810Z,100240.38
2022-11-16T13:40:37.610Z,100240.03
2022-11-16T13:43:33.693Z,100235.81
2022-11-16T13:46:54.372Z,100244.09
2022-11-16T13:49:34.930Z,100248.75
2022-11-16T13:52:23.102Z,100248.97
2022-11-16T13:55:02.121Z,100246.91
2022-11-16T13:57:39.236Z,100242.56
2022-11-16T14:00:15.958Z,100247.63
2022-11-16T14:02:49.524Z,100256.41
2022-11-16T14:05:42.836Z,100246.63
2022-11-16T14:08:48.281Z,100250.53
2022-11-16T14:11:36.961Z,100243.06
2022-11-16T14:14:17.479Z,100244.31
2022-11-16T14:16:53.639Z,100233.78
2022-11-16T14:20:00.913Z,100235.13
2022-11-16T14:23:02.790Z,100241.34
2022-11-16T14:25:47.632Z,100246.06
2022-11-16T14:28:47.241Z,100240.03
2022-11-16T14:31:28.880Z,100238.78
2022-11-16T14:34:04.719Z,100230.69
2022-11-16T14:36:43.843Z,100233.94
2022-11-16T14:39:37.921Z,100243.56
2022-11-16T14:42:20.969Z,100235.28
2022-11-16T14:45:03.762Z,100238.03
2022-11-16T14:47:41.084Z,100233.88
2022-11-16T14:50:23.440Z,100235.03
2022-11-16T14:53:01.001Z,100238.75
2022-11-16T14:55:34.765Z,100235.56
2022-11-16T14:58:12.721Z,100222.84
2022-11-16T15:00:56.050Z,100229.91
2022-11-16T15:03:37.450Z,100231.88
2022-11-16T15:06:28.885Z,100230.72
2022-11-16T15:09:05.997Z,100233.97
2022-11-16T15:11:55.595Z,100222.03
2022-11-16T15:14:33.236Z,100227.13
2022-11-16T15:17:07.477Z,100227.59
2022-11-16T15:19:44.020Z,100226.28
2022-11-16T15:22:21.821Z,100220.56
2022-11-16T15:24:59.866Z,100221.09
2022-11-16T15:27:49.090Z,100231.47
2022-11-16T15:30:25.404Z,100232.63
2022-11-16T15:32:59.654Z,100228.63
2022-11-16T15:35:37.794Z,100215.06
2022-11-16T15:38:19.039Z,100226.53
2022-11-16T15:40:55.565Z,100216.28
2022-11-16T15:43:33.047Z,100222.16
2022-11-16T15:46:08.601Z,100223.13
2022-11-16T15:48:42.607Z,100217.78
2022-11-16T15:51:22.703Z,100214.47
2022-11-16T15:53:56.926Z,100223.56
2022-11-16T15:56:36.741Z,100223.16
2022-11-16T15:59:17.301Z,100213.84
2022-11-16T16:01:50.444Z,100215.59
2022-11-16T16:04:24.658Z,100210.94
2022-11-16T16:07:02.727Z,100204.34
2022-11-16T16:09:38.540Z,100206.41
2022-11-16T16:12:29.379Z,100215.06
2022-11-16T16:15:24.269Z,100216.34
2022-11-16T16:17:58.141Z,100212.22
2022-11-16T16:20:33.505Z,100215.84
2022-11-16T16:23:16.916Z,100212.31
2022-11-16T16:25:50.757Z,100209.03
2022-11-16T16:28:23.865Z,100216.03
2022-11-16T16:30:57.241Z,100213.38
2022-11-16T16:33:30.619Z,100217.44
2022-11-16T16:36:07.098Z,100224.13
2022-11-16T16:38:42.977Z,100209.94
2022-11-16T16:41:24.573Z,100225.97
2022-11-16T16:43:57.969Z,100212.03
2022-11-16T16:46:31.288Z,100220.63
2022-11-16T16:49:04.255Z,100215.81
2022-11-16T16:51:37.221Z,100206.50
2022-11-16T16:54:16.800Z,100211.06
2022-11-16T16:56:50.220Z,100215.06
2022-11-16T16:59:23.335Z,100202.38
2022-11-16T17:01:56.833Z,100212.22
2022-11-16T17:04:30.112Z,100214.91
2022-11-16T17:07:03.612Z,100219.03
2022-11-16T17:09:39.672Z,100222.19
2022-11-16T17:12:13.873Z,100210.22
2022-11-16T17:14:52.154Z,100222.34
2022-11-16T17:17:26.873Z,100221.00
2022-11-16T17:19:59.888Z,100219.50
2022-11-16T17:22:34.075Z,100206.78
2022-11-16T17:25:10.321Z,100212.97
2022-11-16T17:27:43.298Z,100209.84
2022-11-16T17:30:17.817Z,100211.66
2022-11-16T17:32:51.306Z,100219.19
2022-11-16T17:35:24.580Z,100219.50
2022-11-16T17:37:59.416Z,100231.41
2022-11-16T17:40:35.380Z,100228.63
2022-11-16T17:43:08.936Z,100233.25
2022-11-16T17:45:41.859Z,100232.94
2022-11-16T17:48:15.176Z,100229.81
2022-11-16T17:50:51.940Z,100225.75
2022-11-16T17:53:31.220Z,100218.72
2022-11-16T17:56:09.658Z,100221.47
2022-11-16T17:58:43.539Z,100228.28
2022-11-16T18:01:18.113Z,100235.03
2022-11-16T18:03:51.898Z,100238.38
2022-11-16T18:06:27.336Z,100241.66
2022-11-16T18:09:01.105Z,100233.00
2022-11-16T18:11:37.458Z,100237.00
2022-11-16T18:14:11.298Z,100243.19
2022-11-16T18:16:44.978Z,100233.91
2022-11-16T18:19:20.467Z,100233.91
2022-11-16T18:21:54.138Z,100230.44
2022-11-16T18:24:28.139Z,100236.78
2022-11-16T18:27:04.508Z,100236.53
2022-11-16T18:29:38.061Z,100242.28
2022-11-16T18:32:13.346Z,100245.00
2022-11-16T18:34:47.097Z,100233.81
2022-11-16T18:37:20.780Z,100233.91
2022-11-16T18:39:53.482Z,100241.56
2022-11-16T18:42:27.846Z,100240.50
2022-11-16T18:45:00.048Z,100241.97
2022-11-16T18:47:31.789Z,100240.44
2022-11-16T18:50:03.806Z,100236.34
2022-11-16T18:52:35.435Z,100223.00
2022-11-16T18:55:09.485Z,100225.00
2022-11-16T18:57:43.490Z,100222.31
2022-11-16T19:00:19.422Z,100229.34
2022-11-16T19:02:51.343Z,100231.06
2022-11-16T19:05:23.275Z,100225.81
2022-11-16T19:07:55.009Z,100219.88
2022-11-16T19:10:26.596Z,100227.84
2022-11-16T19:13:00.548Z,100226.50
2022-11-16T19:15:32.339Z,100231.88
2022-11-16T19:18:21.400Z,100224.84
2022-11-16T19:20:53.546Z,100232.06
2022-11-16T19:23:24.861Z,100233.19
2022-11-16T19:26:05.096Z,100227.56
2022-11-16T19:28:46.140Z,100235.06
2022-11-16T19:31:26.492Z,100225.28
2022-11-16T19:34:04.797Z,100238.97
2022-11-16T19:36:39.275Z,100244.59
2022-11-16T19:39:10.824Z,100240.72
2022-11-16T19:41:43.633Z,100244.47
2022-11-16T19:44:18.972Z,100235.91
2022-11-16T19:46:53.732Z,100233.84
2022-11-16T19:49:26.715Z,100239.06
2022-11-16T19:51:59.951Z,100235.06
2022-11-16T19:54:32.813Z,100243.06
2022-11-16T19:57:05.834Z,100246.84
2022-11-16T19:59:41.374Z,100247.69
2022-11-16T20:02:14.394Z,100251.88
2022-11-16T20:04:47.270Z,100251.13
2022-11-16T20:07:20.435Z,100246.19
2022-11-16T20:09:53.640Z,100253.59
2022-11-16T20:12:26.953Z,100246.06
2022-11-16T20:15:03.322Z,100254.13
2022-11-16T20:17:50.204Z,100251.75
2022-11-16T20:20:29.521Z,100251.34
2022-11-16T20:23:02.575Z,100252.78
2022-11-16T20:25:35.129Z,100253.34
2022-11-16T20:28:08.402Z,100264.78
2022-11-16T20:30:49.828Z,100252.13
2022-11-16T20:33:24.141Z,100251.97
2022-11-16T20:36:02.900Z,100257.72
2022-11-16T20:38:36.909Z,100272.75
2022-11-16T20:41:14.683Z,100272.47
2022-11-16T20:43:49.080Z,100271.69
2022-11-16T20:46:26.522Z,100271.75
2022-11-16T20:49:02.202Z,100265.63
2022-11-16T20:51:35.121Z,100257.75
2022-11-16T20:54:08.521Z,100264.78
2022-11-16T20:56:41.373Z,100271.13
2022-11-16T20:59:14.481Z,100267.09
2022-11-16T21:01:51.096Z,100265.09
2022-11-16T21:04:24.042Z,100264.94
2022-11-16T21:06:56.899Z,100269.78
2022-11-16T21:09:50.359Z,100270.38
2022-11-16T21:12:38.813Z,100266.47
2022-11-16T21:15:16.023Z,100273.94
2022-11-16T21:17:51.941Z,100264.25
2022-11-16T21:20:28.243Z,100259.56
2022-11-16T21:23:01.824Z,100267.72
2022-11-16T21:25:37.661Z,100260.94
2022-11-16T21:28:10.883Z,100262.50
2022-11-16T21:30:44.421Z,100266.91
2022-11-16T21:33:20.201Z,100252.16
2022-11-16T21:35:54.922Z,100259.25
2022-11-16T21:38:29.088Z,100270.03
2022-11-16T21:41:02.640Z,100263.25
2022-11-16T21:43:37.005Z,100259.50
2022-11-16T21:46:12.080Z,100269.19
2022-11-16T21:48:48.501Z,100272.16
2022-11-16T21:51:25.303Z,100274.28
2022-11-16T21:53:58.863Z,100278.03
2022-11-16T21:56:32.082Z,100272.59
2022-11-16T21:59:04.702Z,100268.94
2022-11-16T22:01:57.901Z,100269.44
2022-11-16T22:04:46.022Z,100261.97
2022-11-16T22:07:31.457Z,100263.72
2022-11-16T22:10:04.845Z,100261.44
2022-11-16T22:12:38.984Z,100273.47
2022-11-16T22:15:12.903Z,100262.91
2022-11-16T22:17:47.942Z,100264.84
2022-11-16T22:20:23.741Z,100260.03
2022-11-16T22:22:56.781Z,100259.75
2022-11-16T22:25:29.650Z,100265.22
2022-11-16T22:28:20.216Z,100265.75
2022-11-16T22:30:53.742Z,100276.94
2022-11-16T22:33:27.126Z,100283.09
2022-11-16T22:36:02.565Z,100271.59
2022-11-16T22:38:37.282Z,100270.13
2022-11-16T22:41:10.089Z,100274.06
2022-11-16T22:43:43.364Z,100270.63
2022-11-16T22:46:16.004Z,100264.31
2022-11-16T22:48:49.182Z,100251.81
2022-11-16T22:51:26.921Z,100255.22
2022-11-16T22:54:01.524Z,100248.78
2022-11-16T22:56:35.481Z,100258.78
2022-11-16T22:59:10.181Z,100239.41
2022-11-16T23:01:43.382Z,100256.69
2022-11-16T23:04:16.524Z,100253.34
2022-11-16T23:06:52.319Z,100246.13
2022-11-16T23:09:25.284Z,100253.88
2022-11-16T23:12:10.545Z,100251.16
2022-11-16T23:14:55.765Z,100250.81
2022-11-16T23:17:28.570Z,100245.16
2022-11-16T23:20:17.596Z,100243.50
2022-11-16T23:23:05.597Z,100240.69
2022-11-16T23:25:50.824Z,100243.78
2022-11-16T23:28:24.314Z,100242.16
2022-11-16T23:30:57.464Z,100238.19
2022-11-16T23:33:42.345Z,100234.78
2022-11-16T23:36:16.391Z,100234.03
2022-11-16T23:38:52.005Z,100233.47
2022-11-16T23:41:37.024Z,100236.63
2022-11-16T23:44:10.124Z,100234.16
2022-11-16T23:46:42.541Z,100227.84
2022-11-16T23:49:14.204Z,100215.06
2022-11-16T23:51:46.234Z,100214.41
2022-11-16T23:54:20.600Z,100219.03
2022-11-16T23:56:52.488Z,100217.09
2022-11-16T23:59:24.121Z,100217.41
